Terminal Aerodrome Forecast
Issued by NWS

Home | Current Version | Previous Version | Text Only | Print | Product List | Glossary On
Versions: 1 2 3 4 5 6 7 8 9 10 11 12 13 14 15 16 17 18
000
FTUS43 KMQT 171300 AAA
TAFCMX
TAF AMD
KCMX 171332Z 1714/1812 11011G20KT 1/4SM +SN OVC002
     FM171600 11007KT 2SM -SN OVC006
     FM171800 11006KT P6SM OVC006
     FM172200 28009KT P6SM OVC006
     FM180100 30010KT P6SM OVC008=

USA.gov is the U.S. government's official web portal to all federal, state and local government web resources and services.